createdAt,value
2019-02-02T00:00:09.158Z,23.07
2019-02-02T00:02:43.853Z,20.90
2019-02-02T00:05:16.888Z,20.00
2019-02-02T00:07:49.963Z,20.50
2019-02-02T00:10:22.898Z,21.03
2019-02-02T00:12:56.078Z,20.13
2019-02-02T00:15:29.097Z,20.13
2019-02-02T00:18:01.888Z,20.77
2019-02-02T00:20:34.832Z,24.53
2019-02-02T00:23:07.686Z,22.93
2019-02-02T00:25:40.647Z,23.57
2019-02-02T00:28:13.692Z,21.50
2019-02-02T00:30:46.594Z,22.13
2019-02-02T00:33:19.464Z,23.47
2019-02-02T00:35:52.269Z,21.07
2019-02-02T00:38:25.185Z,22.43
2019-02-02T00:40:58.032Z,21.97
2019-02-02T00:43:30.855Z,22.73
2019-02-02T00:46:03.917Z,21.30
2019-02-02T00:48:36.695Z,21.30
2019-02-02T00:51:09.612Z,23.07
2019-02-02T00:53:42.502Z,21.73
2019-02-02T00:56:15.509Z,22.93
2019-02-02T00:58:48.498Z,23.10
2019-02-02T01:01:21.298Z,22.40
2019-02-02T01:03:55.153Z,22.10
2019-02-02T01:06:28.080Z,23.00
2019-02-02T01:09:01.050Z,22.43
2019-02-02T01:11:35.774Z,22.80
2019-02-02T01:14:08.608Z,22.03
2019-02-02T01:16:41.358Z,23.23
2019-02-02T01:19:14.438Z,24.10
2019-02-02T01:21:47.474Z,21.67
2019-02-02T01:24:20.283Z,22.73
2019-02-02T01:26:53.198Z,24.03
2019-02-02T01:29:25.946Z,22.93
2019-02-02T01:31:59.006Z,26.23
2019-02-02T01:34:31.851Z,27.90
2019-02-02T01:37:04.835Z,27.93
2019-02-02T01:39:37.689Z,26.93
2019-02-02T01:42:10.573Z,28.20
2019-02-02T01:44:43.435Z,26.43
2019-02-02T01:47:16.394Z,27.80
2019-02-02T01:49:49.254Z,28.10
2019-02-02T01:52:22.165Z,29.43
2019-02-02T01:54:55.118Z,27.27
2019-02-02T01:57:27.855Z,26.57
2019-02-02T02:00:00.782Z,26.60
2019-02-02T02:02:33.501Z,27.80
2019-02-02T02:05:06.259Z,27.60
2019-02-02T02:07:39.495Z,26.47
2019-02-02T02:10:13.241Z,25.97
2019-02-02T02:12:45.989Z,26.53
2019-02-02T02:15:18.894Z,24.17
2019-02-02T02:17:51.795Z,24.27
2019-02-02T02:20:24.604Z,25.13
2019-02-02T02:22:57.529Z,24.83
2019-02-02T02:25:30.259Z,26.20
2019-02-02T02:28:02.984Z,24.83
2019-02-02T02:30:35.980Z,25.03
2019-02-02T02:33:08.954Z,25.13
2019-02-02T02:35:41.965Z,23.70
2019-02-02T02:38:14.929Z,26.87
2019-02-02T02:40:47.980Z,27.63
2019-02-02T02:43:20.835Z,26.10
2019-02-02T02:45:53.661Z,25.63
2019-02-02T02:48:26.649Z,24.90
2019-02-02T02:50:59.395Z,25.63
2019-02-02T02:53:32.315Z,23.90
2019-02-02T02:56:05.209Z,25.80
2019-02-02T02:58:41.642Z,22.93
2019-02-02T03:01:12.783Z,24.07
2019-02-02T03:03:45.658Z,25.97
2019-02-02T03:06:18.562Z,26.00
2019-02-02T03:08:51.475Z,24.73
2019-02-02T03:11:24.457Z,24.20
2019-02-02T03:13:57.369Z,24.73
2019-02-02T03:16:30.248Z,24.97
2019-02-02T03:19:03.226Z,24.27
2019-02-02T03:21:36.061Z,25.47
2019-02-02T03:24:08.829Z,24.67
2019-02-02T03:26:41.585Z,25.10
2019-02-02T03:29:14.514Z,24.83
2019-02-02T03:31:48.672Z,25.87
2019-02-02T03:34:21.816Z,25.63
2019-02-02T03:36:54.922Z,26.57
2019-02-02T03:39:27.704Z,25.33
2019-02-02T03:42:00.535Z,25.40
2019-02-02T03:44:33.470Z,24.03
2019-02-02T03:47:06.392Z,23.60
2019-02-02T03:49:39.201Z,25.13
2019-02-02T03:52:11.916Z,28.20
2019-02-02T03:54:45.001Z,40.43
2019-02-02T03:57:17.789Z,35.07
2019-02-02T03:59:50.651Z,27.27
2019-02-02T04:02:23.469Z,25.00
2019-02-02T04:04:56.320Z,25.63
2019-02-02T04:07:29.401Z,26.97
2019-02-02T04:10:02.630Z,26.17
2019-02-02T04:12:35.745Z,26.20
2019-02-02T04:15:09.197Z,28.90
2019-02-02T04:17:41.987Z,27.20
2019-02-02T04:20:19.208Z,29.77
2019-02-02T04:22:52.207Z,27.57
2019-02-02T04:25:25.128Z,28.60
2019-02-02T04:27:57.925Z,29.67
2019-02-02T04:30:30.769Z,28.47
2019-02-02T04:33:03.863Z,28.80
2019-02-02T04:35:36.902Z,27.07
2019-02-02T04:38:09.789Z,28.20
2019-02-02T04:40:42.645Z,28.10
2019-02-02T04:43:15.417Z,27.37
2019-02-02T04:45:48.212Z,29.70
2019-02-02T04:48:21.091Z,29.43
2019-02-02T04:50:53.922Z,26.90
2019-02-02T04:53:26.696Z,26.23
2019-02-02T04:55:59.573Z,26.40
2019-02-02T04:58:32.806Z,26.73
2019-02-02T05:01:05.888Z,29.83
2019-02-02T05:03:38.837Z,27.50
2019-02-02T05:06:11.743Z,29.03
2019-02-02T05:08:44.758Z,28.90
2019-02-02T05:11:17.568Z,28.00
2019-02-02T05:13:50.486Z,27.30
2019-02-02T05:16:23.563Z,26.20
2019-02-02T05:18:56.553Z,25.30
2019-02-02T05:21:29.411Z,25.80
2019-02-02T05:24:03.142Z,25.43
2019-02-02T05:26:36.107Z,25.73
2019-02-02T05:29:08.926Z,27.03
2019-02-02T05:31:41.652Z,28.90
2019-02-02T05:34:14.552Z,28.47
2019-02-02T05:36:47.682Z,27.10
2019-02-02T05:39:20.746Z,26.90
2019-02-02T05:41:53.760Z,25.73
2019-02-02T05:44:26.697Z,27.77
2019-02-02T05:46:59.458Z,27.73
2019-02-02T05:49:33.446Z,28.33
2019-02-02T05:52:06.224Z,28.37
2019-02-02T05:54:38.983Z,26.70
2019-02-02T05:57:11.893Z,30.60
2019-02-02T05:59:52.438Z,29.83
2019-02-02T06:02:19.873Z,27.93
2019-02-02T06:04:52.837Z,28.33
2019-02-02T06:07:25.858Z,27.23
2019-02-02T06:09:58.870Z,26.63
2019-02-02T06:12:31.582Z,26.30
2019-02-02T06:15:05.333Z,26.87
2019-02-02T06:17:38.095Z,27.90
2019-02-02T06:20:11.397Z,26.23
2019-02-02T06:22:44.248Z,26.53
2019-02-02T06:25:17.160Z,24.53
2019-02-02T06:27:50.002Z,24.47
2019-02-02T06:30:23.238Z,24.57
2019-02-02T06:32:56.310Z,24.53
2019-02-02T06:35:29.313Z,23.53
2019-02-02T06:38:02.381Z,24.33
2019-02-02T06:40:35.325Z,26.27
2019-02-02T06:43:08.335Z,25.90
2019-02-02T06:45:41.288Z,25.90
2019-02-02T06:48:14.187Z,27.70
2019-02-02T06:50:46.971Z,28.13
2019-02-02T06:53:20.020Z,27.40
2019-02-02T06:55:52.877Z,29.57
2019-02-02T06:58:25.720Z,28.13
2019-02-02T07:00:58.694Z,28.17
2019-02-02T07:03:31.660Z,27.23
2019-02-02T07:06:04.954Z,25.33
2019-02-02T07:08:37.769Z,27.83
2019-02-02T07:11:10.857Z,24.13
2019-02-02T07:13:43.625Z,24.33
2019-02-02T07:16:16.563Z,24.97
2019-02-02T07:18:49.314Z,24.10
2019-02-02T07:21:23.199Z,22.87
2019-02-02T07:23:56.233Z,22.70
2019-02-02T07:26:29.068Z,23.80
2019-02-02T07:29:01.943Z,24.40
2019-02-02T07:31:35.005Z,23.53
2019-02-02T07:34:07.919Z,23.57
2019-02-02T07:36:40.732Z,24.57
2019-02-02T07:39:13.805Z,23.53
2019-02-02T07:41:46.865Z,23.57
2019-02-02T07:44:19.953Z,26.77
2019-02-02T07:46:52.764Z,27.03
2019-02-02T07:49:25.498Z,25.37
2019-02-02T07:51:58.318Z,22.60
2019-02-02T07:54:33.048Z,22.10
2019-02-02T07:57:05.921Z,22.30
2019-02-02T07:59:38.655Z,25.13
2019-02-02T08:02:11.550Z,44.10
2019-02-02T08:04:44.518Z,31.77
2019-02-02T08:07:18.349Z,25.03
2019-02-02T08:09:51.293Z,23.80
2019-02-02T08:12:24.381Z,24.50
2019-02-02T08:14:57.469Z,26.27
2019-02-02T08:17:32.414Z,27.47
2019-02-02T08:20:06.934Z,28.87
2019-02-02T08:22:39.735Z,26.83
2019-02-02T08:25:13.210Z,26.33
2019-02-02T08:27:46.311Z,27.40
2019-02-02T08:30:21.154Z,29.80
2019-02-02T08:32:54.205Z,29.23
2019-02-02T08:35:27.288Z,28.77
2019-02-02T08:38:00.384Z,28.17
2019-02-02T08:40:33.344Z,29.43
2019-02-02T08:43:06.319Z,28.53
2019-02-02T08:45:39.239Z,25.10
2019-02-02T08:48:12.310Z,25.13
2019-02-02T08:50:45.191Z,28.80
2019-02-02T08:53:18.197Z,27.07
2019-02-02T08:55:51.995Z,29.93
2019-02-02T08:58:25.461Z,28.53
2019-02-02T09:01:04.332Z,28.17
2019-02-02T09:03:33.487Z,30.23
2019-02-02T09:06:07.422Z,29.53
2019-02-02T09:08:40.361Z,28.33
2019-02-02T09:11:13.331Z,26.47
2019-02-02T09:13:46.663Z,26.47
2019-02-02T09:16:19.620Z,28.43
2019-02-02T09:18:52.572Z,28.70
2019-02-02T09:21:25.395Z,28.83
2019-02-02T09:23:58.531Z,30.37
2019-02-02T09:26:31.441Z,29.43
2019-02-02T09:29:04.281Z,27.87
2019-02-02T09:31:37.356Z,27.63
2019-02-02T09:34:10.401Z,27.30
2019-02-02T09:36:43.190Z,30.37
2019-02-02T09:39:16.031Z,31.63
2019-02-02T09:41:48.887Z,31.00
2019-02-02T09:44:21.863Z,28.60
2019-02-02T09:46:54.968Z,27.37
2019-02-02T09:49:28.025Z,27.63
2019-02-02T09:52:00.814Z,24.33
2019-02-02T09:54:33.769Z,27.67
2019-02-02T09:57:06.925Z,28.10
2019-02-02T09:59:39.736Z,27.67
2019-02-02T10:02:12.531Z,29.07
2019-02-02T10:04:45.467Z,25.00
2019-02-02T10:07:18.401Z,33.57
2019-02-02T10:09:51.326Z,26.90
2019-02-02T10:12:24.161Z,26.13
2019-02-02T10:14:57.065Z,27.50
2019-02-02T10:17:30.111Z,27.97
2019-02-02T10:20:03.917Z,28.00
2019-02-02T10:22:36.992Z,25.33
2019-02-02T10:25:11.286Z,26.83
2019-02-02T10:27:44.383Z,25.77
2019-02-02T10:30:22.837Z,27.87
2019-02-02T10:32:55.922Z,28.13
2019-02-02T10:35:28.806Z,29.53
2019-02-02T10:38:01.810Z,30.10
2019-02-02T10:40:34.721Z,26.73
2019-02-02T10:43:08.094Z,27.03
2019-02-02T10:45:41.211Z,21.97
2019-02-02T10:48:14.126Z,23.30
2019-02-02T10:50:47.189Z,24.87
2019-02-02T10:53:20.237Z,25.60
2019-02-02T10:55:52.977Z,28.17
2019-02-02T10:58:25.749Z,27.37
2019-02-02T11:00:58.809Z,29.70
2019-02-02T11:03:31.943Z,26.10
2019-02-02T11:06:05.124Z,26.70
2019-02-02T11:08:38.193Z,22.23
2019-02-02T11:11:11.088Z,25.90
2019-02-02T11:13:44.164Z,29.10
2019-02-02T11:16:17.111Z,28.00
2019-02-02T11:18:49.959Z,27.20
2019-02-02T11:21:23.083Z,29.57
2019-02-02T11:23:56.121Z,27.57
2019-02-02T11:26:29.053Z,26.87
2019-02-02T11:29:02.222Z,26.43
2019-02-02T11:31:35.270Z,24.43
2019-02-02T11:34:08.187Z,23.07
2019-02-02T11:36:43.804Z,24.20
2019-02-02T11:39:16.041Z,26.53
2019-02-02T11:41:48.974Z,26.00
2019-02-02T11:44:21.762Z,25.87
2019-02-02T11:46:54.650Z,25.97
2019-02-02T11:49:27.527Z,30.47
2019-02-02T11:52:01.332Z,31.40
2019-02-02T11:54:34.388Z,33.93
2019-02-02T11:57:07.340Z,33.77
2019-02-02T11:59:40.417Z,35.03
2019-02-02T12:02:14.909Z,32.47
2019-02-02T12:04:47.999Z,35.37
2019-02-02T12:07:21.154Z,33.60
2019-02-02T12:09:53.958Z,32.17
2019-02-02T12:12:27.037Z,34.27
2019-02-02T12:14:59.815Z,41.03
2019-02-02T12:17:32.677Z,35.97
2019-02-02T12:20:06.909Z,30.73
2019-02-02T12:22:39.993Z,32.67
2019-02-02T12:25:13.970Z,30.97
2019-02-02T12:27:47.215Z,31.83
2019-02-02T12:30:28.223Z,34.00
2019-02-02T12:33:03.391Z,33.63
2019-02-02T12:35:35.708Z,33.70
2019-02-02T12:38:08.975Z,34.43
2019-02-02T12:40:41.788Z,31.97
2019-02-02T12:43:14.907Z,33.10
2019-02-02T12:45:50.494Z,33.93
2019-02-02T12:48:23.414Z,34.10
2019-02-02T12:50:56.515Z,37.60
2019-02-02T12:53:29.687Z,34.17
2019-02-02T12:56:02.814Z,31.13
2019-02-02T12:58:35.941Z,35.10
2019-02-02T13:01:08.796Z,39.83
2019-02-02T13:03:41.552Z,39.00
2019-02-02T13:06:14.556Z,36.83
2019-02-02T13:08:47.763Z,35.73
2019-02-02T13:11:20.637Z,39.37
2019-02-02T13:13:53.418Z,34.43
2019-02-02T13:16:26.235Z,33.53
2019-02-02T13:18:59.525Z,34.60
2019-02-02T13:21:32.267Z,35.90
2019-02-02T13:24:05.339Z,34.00
2019-02-02T13:26:38.425Z,37.70
2019-02-02T13:29:11.689Z,32.43
2019-02-02T13:31:44.671Z,33.57
2019-02-02T13:34:17.792Z,35.80
2019-02-02T13:36:50.781Z,34.23
2019-02-02T13:39:23.888Z,32.60
2019-02-02T13:41:56.965Z,34.10
2019-02-02T13:44:30.139Z,36.73
2019-02-02T13:47:03.040Z,41.97
2019-02-02T13:49:35.899Z,37.93
2019-02-02T13:52:08.840Z,36.30
2019-02-02T13:54:41.824Z,33.57
2019-02-02T13:57:14.948Z,32.23
2019-02-02T13:59:47.950Z,34.13
2019-02-02T14:02:20.730Z,32.63
2019-02-02T14:04:53.745Z,35.70
2019-02-02T14:07:26.755Z,35.13
2019-02-02T14:09:59.634Z,35.83
2019-02-02T14:12:32.574Z,37.10
2019-02-02T14:15:06.371Z,34.67
2019-02-02T14:17:39.348Z,35.93
2019-02-02T14:20:12.468Z,34.50
2019-02-02T14:22:45.510Z,34.83
2019-02-02T14:25:18.380Z,31.47
2019-02-02T14:27:51.382Z,31.00
2019-02-02T14:30:24.957Z,32.03
2019-02-02T14:32:57.708Z,32.93
2019-02-02T14:35:30.796Z,36.17
2019-02-02T14:38:03.797Z,37.13
2019-02-02T14:40:36.875Z,40.77
2019-02-02T14:43:09.817Z,38.47
2019-02-02T14:45:43.064Z,40.57
2019-02-02T14:48:16.045Z,42.53
2019-02-02T14:50:49.037Z,43.47
2019-02-02T14:53:22.062Z,48.90
2019-02-02T14:55:55.026Z,51.67
2019-02-02T14:58:28.330Z,52.20
2019-02-02T15:01:01.271Z,51.83
2019-02-02T15:03:34.592Z,58.20
2019-02-02T15:06:09.606Z,58.43
2019-02-02T15:08:42.587Z,56.40
2019-02-02T15:11:15.594Z,61.67
2019-02-02T15:13:48.544Z,57.73
2019-02-02T15:16:21.456Z,64.93
2019-02-02T15:18:54.298Z,63.00
2019-02-02T15:21:27.355Z,61.07
2019-02-02T15:24:00.097Z,57.20
2019-02-02T15:26:33.064Z,62.37
2019-02-02T15:29:06.047Z,60.53
2019-02-02T15:31:39.022Z,66.73
2019-02-02T15:34:11.811Z,65.00
2019-02-02T15:36:44.752Z,62.73
2019-02-02T15:39:17.628Z,58.37
2019-02-02T15:41:53.018Z,58.83
2019-02-02T15:44:25.348Z,56.73
2019-02-02T15:46:58.216Z,57.50
2019-02-02T15:49:31.362Z,55.23
2019-02-02T15:52:04.223Z,51.07
2019-02-02T15:54:37.187Z,57.37
2019-02-02T15:57:11.007Z,54.57
2019-02-02T15:59:43.807Z,52.73
2019-02-02T16:02:16.869Z,52.50
2019-02-02T16:04:49.779Z,54.93
2019-02-02T16:07:22.710Z,55.27
2019-02-02T16:09:55.606Z,53.77
2019-02-02T16:12:28.749Z,60.60
2019-02-02T16:15:01.642Z,54.90
2019-02-02T16:17:34.890Z,59.47
2019-02-02T16:20:11.652Z,56.47
2019-02-02T16:22:44.413Z,55.47
2019-02-02T16:25:17.604Z,54.40
2019-02-02T16:27:50.437Z,59.57
2019-02-02T16:30:24.583Z,56.87
2019-02-02T16:32:57.603Z,57.00
2019-02-02T16:35:30.486Z,50.53
2019-02-02T16:38:03.411Z,49.20
2019-02-02T16:40:36.281Z,50.97
2019-02-02T16:43:09.161Z,43.20
2019-02-02T16:45:42.221Z,43.17
2019-02-02T16:48:15.243Z,37.73
2019-02-02T16:50:48.261Z,36.97
2019-02-02T16:53:21.855Z,39.23
2019-02-02T16:55:55.066Z,40.20
2019-02-02T16:58:27.952Z,40.97
2019-02-02T17:01:00.970Z,43.10
2019-02-02T17:03:34.060Z,44.87
2019-02-02T17:06:06.939Z,41.50
2019-02-02T17:08:40.011Z,40.20
2019-02-02T17:11:13.054Z,41.67
2019-02-02T17:13:45.930Z,45.37
2019-02-02T17:16:18.902Z,43.77
2019-02-02T17:18:51.845Z,48.80
2019-02-02T17:21:24.652Z,44.23
2019-02-02T17:23:57.596Z,45.10
2019-02-02T17:26:30.597Z,44.70
2019-02-02T17:29:03.692Z,44.57
2019-02-02T17:31:36.867Z,45.50
2019-02-02T17:34:10.002Z,44.00
2019-02-02T17:36:42.864Z,45.70
2019-02-02T17:39:15.793Z,45.87
2019-02-02T17:41:48.578Z,47.60
2019-02-02T17:44:21.467Z,45.83
2019-02-02T17:46:54.283Z,46.00
2019-02-02T17:49:27.358Z,46.03
2019-02-02T17:52:00.229Z,47.00
2019-02-02T17:54:33.185Z,45.37
2019-02-02T17:57:07.657Z,47.80
2019-02-02T17:59:40.434Z,47.73
2019-02-02T18:02:13.217Z,48.53
2019-02-02T18:04:46.137Z,52.67
2019-02-02T18:07:19.052Z,49.73
2019-02-02T18:09:51.814Z,47.97
2019-02-02T18:12:24.673Z,50.43
2019-02-02T18:14:57.709Z,51.77
2019-02-02T18:17:30.534Z,53.67
2019-02-02T18:20:04.823Z,50.80
2019-02-02T18:22:37.833Z,52.97
2019-02-02T18:25:11.928Z,52.03
2019-02-02T18:27:45.815Z,52.47
2019-02-02T18:30:19.383Z,54.20
2019-02-02T18:32:52.307Z,54.80
2019-02-02T18:35:25.442Z,53.13
2019-02-02T18:37:58.219Z,51.83
2019-02-02T18:40:31.143Z,55.07
2019-02-02T18:43:04.216Z,57.17
2019-02-02T18:45:37.041Z,56.97
2019-02-02T18:48:09.857Z,54.83
2019-02-02T18:50:42.902Z,57.73
2019-02-02T18:53:15.913Z,55.33
2019-02-02T18:55:55.703Z,52.63
2019-02-02T18:58:28.809Z,55.27
2019-02-02T19:01:01.903Z,56.57
2019-02-02T19:03:36.115Z,59.70
2019-02-02T19:06:09.164Z,59.37
2019-02-02T19:08:42.188Z,56.17
2019-02-02T19:11:15.045Z,55.57
2019-02-02T19:13:48.107Z,56.53
2019-02-02T19:16:20.863Z,60.03
2019-02-02T19:18:53.791Z,60.03
2019-02-02T19:21:26.691Z,58.83
2019-02-02T19:23:59.950Z,58.97
2019-02-02T19:26:32.898Z,60.67
2019-02-02T19:29:05.853Z,59.70
2019-02-02T19:31:38.879Z,61.00
2019-02-02T19:34:11.960Z,59.53
2019-02-02T19:36:44.799Z,59.23
2019-02-02T19:39:17.698Z,58.10
2019-02-02T19:41:50.669Z,58.47
2019-02-02T19:44:23.522Z,59.20
2019-02-02T19:46:56.564Z,57.97
2019-02-02T19:49:29.500Z,55.80
2019-02-02T19:52:02.646Z,61.20
2019-02-02T19:54:35.670Z,62.63
2019-02-02T19:57:08.905Z,57.73
2019-02-02T19:59:41.824Z,61.07
2019-02-02T20:02:14.840Z,58.37
2019-02-02T20:04:47.761Z,64.47
2019-02-02T20:07:20.691Z,57.87
2019-02-02T20:09:53.734Z,62.53
2019-02-02T20:12:26.666Z,59.10
2019-02-02T20:14:59.745Z,60.97
2019-02-02T20:17:32.687Z,62.17
2019-02-02T20:20:08.334Z,59.03
2019-02-02T20:22:41.294Z,59.13
2019-02-02T20:25:14.196Z,58.57
2019-02-02T20:27:47.043Z,62.93
2019-02-02T20:30:22.020Z,64.07
2019-02-02T20:32:54.785Z,58.20
2019-02-02T20:35:39.810Z,60.33
2019-02-02T20:38:02.497Z,57.77
2019-02-02T20:40:35.362Z,62.27
2019-02-02T20:43:08.201Z,60.77
2019-02-02T20:45:41.245Z,59.33
2019-02-02T20:48:14.187Z,59.87
2019-02-02T20:50:47.059Z,64.87
2019-02-02T20:53:20.657Z,68.73
2019-02-02T20:55:53.706Z,68.47
2019-02-02T20:58:26.560Z,62.30
2019-02-02T21:00:59.333Z,60.67
2019-02-02T21:03:32.167Z,58.97
2019-02-02T21:06:05.075Z,64.37
2019-02-02T21:08:38.395Z,63.20
2019-02-02T21:11:11.335Z,60.43
2019-02-02T21:13:44.146Z,60.23
2019-02-02T21:16:17.402Z,62.00
2019-02-02T21:18:50.390Z,60.90
2019-02-02T21:21:23.561Z,54.40
2019-02-02T21:23:56.437Z,61.40
2019-02-02T21:26:29.403Z,74.70
2019-02-02T21:29:02.198Z,70.00
2019-02-02T21:31:35.088Z,64.03
2019-02-02T21:34:09.105Z,64.53
2019-02-02T21:36:42.032Z,61.10
2019-02-02T21:39:15.010Z,64.57
2019-02-02T21:41:47.993Z,65.00
2019-02-02T21:44:20.911Z,65.97
2019-02-02T21:46:53.917Z,66.50
2019-02-02T21:49:26.996Z,63.83
2019-02-02T21:51:59.922Z,65.33
2019-02-02T21:54:33.032Z,69.33
2019-02-02T21:57:06.796Z,72.20
2019-02-02T21:59:39.622Z,68.07
2019-02-02T22:02:12.712Z,69.47
2019-02-02T22:04:45.478Z,72.00
2019-02-02T22:07:18.876Z,69.40
2019-02-02T22:09:51.938Z,64.83
2019-02-02T22:12:24.937Z,69.53
2019-02-02T22:14:57.937Z,66.70
2019-02-02T22:17:31.356Z,76.23
2019-02-02T22:20:05.376Z,65.50
2019-02-02T22:22:38.367Z,63.00
2019-02-02T22:25:13.952Z,66.83
2019-02-02T22:27:47.233Z,60.37
2019-02-02T22:30:22.297Z,61.03
2019-02-02T22:32:55.433Z,64.40
2019-02-02T22:35:28.303Z,64.60
2019-02-02T22:38:01.676Z,62.83
2019-02-02T22:40:34.817Z,64.77
2019-02-02T22:43:07.708Z,69.97
2019-02-02T22:45:40.599Z,68.40
2019-02-02T22:48:13.674Z,63.47
2019-02-02T22:50:46.546Z,66.13
2019-02-02T22:53:19.622Z,66.90
2019-02-02T22:55:52.794Z,67.00
2019-02-02T22:58:25.633Z,64.37
2019-02-02T23:01:12.198Z,65.00
2019-02-02T23:03:49.063Z,64.87
2019-02-02T23:07:04.092Z,65.70
2019-02-02T23:10:33.627Z,63.43
2019-02-02T23:13:43.939Z,63.63
2019-02-02T23:16:29.905Z,63.70
2019-02-02T23:19:03.148Z,66.43
2019-02-02T23:21:35.963Z,60.13
2019-02-02T23:24:08.988Z,62.90
2019-02-02T23:26:41.818Z,63.77
2019-02-02T23:29:14.737Z,60.50
2019-02-02T23:31:47.524Z,63.23
2019-02-02T23:34:20.980Z,60.50
2019-02-02T23:36:55.883Z,64.03
2019-02-02T23:39:28.818Z,61.17
2019-02-02T23:42:01.528Z,60.87
2019-02-02T23:44:34.592Z,63.93
2019-02-02T23:47:07.579Z,62.07
2019-02-02T23:49:41.281Z,64.40
2019-02-02T23:52:14.328Z,59.17
2019-02-02T23:54:47.259Z,61.70
2019-02-02T23:57:20.404Z,58.47
2019-02-02T23:59:53.231Z,58.67
